sensor_id;sensor_type;location;lat;lon;timestamp;P1;durP1;ratioP1;P2;durP2;ratioP2
45688;SDS011;31400;48.132;20.872;2023-03-24T00:01:01;6.13;;;2.80;;
45688;SDS011;31400;48.132;20.872;2023-03-24T00:03:28;6.03;;;2.58;;
45688;SDS011;31400;48.132;20.872;2023-03-24T00:05:58;5.00;;;2.83;;
45688;SDS011;31400;48.132;20.872;2023-03-24T00:08:29;4.82;;;2.65;;
45688;SDS011;31400;48.132;20.872;2023-03-24T00:10:59;7.03;;;3.13;;
45688;SDS011;31400;48.132;20.872;2023-03-24T00:13:26;5.45;;;3.05;;
45688;SDS011;31400;48.132;20.872;2023-03-24T00:15:52;12.20;;;3.90;;
45688;SDS011;31400;48.132;20.872;2023-03-24T00:18:18;8.35;;;3.20;;
45688;SDS011;31400;48.132;20.872;2023-03-24T00:20:46;6.18;;;2.95;;
45688;SDS011;31400;48.132;20.872;2023-03-24T00:23:12;5.38;;;2.92;;
45688;SDS011;31400;48.132;20.872;2023-03-24T00:25:39;7.20;;;3.25;;
45688;SDS011;31400;48.132;20.872;2023-03-24T00:28:06;5.72;;;3.33;;
45688;SDS011;31400;48.132;20.872;2023-03-24T00:30:33;4.93;;;2.80;;
45688;SDS011;31400;48.132;20.872;2023-03-24T00:33:00;5.72;;;2.95;;
45688;SDS011;31400;48.132;20.872;2023-03-24T00:35:26;4.85;;;3.03;;
45688;SDS011;31400;48.132;20.872;2023-03-24T00:37:52;4.75;;;3.15;;
45688;SDS011;31400;48.132;20.872;2023-03-24T00:42:45;6.70;;;2.90;;
45688;SDS011;31400;48.132;20.872;2023-03-24T00:45:16;7.72;;;3.83;;
45688;SDS011;31400;48.132;20.872;2023-03-24T00:47:43;6.05;;;3.40;;
45688;SDS011;31400;48.132;20.872;2023-03-24T00:50:14;8.63;;;3.47;;
45688;SDS011;31400;48.132;20.872;2023-03-24T00:52:40;7.60;;;3.90;;
45688;SDS011;31400;48.132;20.872;2023-03-24T00:55:09;7.80;;;4.03;;
45688;SDS011;31400;48.132;20.872;2023-03-24T00:57:38;6.85;;;3.97;;
45688;SDS011;31400;48.132;20.872;2023-03-24T01:00:05;8.73;;;4.07;;
45688;SDS011;31400;48.132;20.872;2023-03-24T01:02:38;6.22;;;3.83;;
45688;SDS011;31400;48.132;20.872;2023-03-24T01:05:05;6.20;;;3.35;;
45688;SDS011;31400;48.132;20.872;2023-03-24T01:07:32;10.25;;;4.25;;
45688;SDS011;31400;48.132;20.872;2023-03-24T01:09:59;7.32;;;4.38;;
45688;SDS011;31400;48.132;20.872;2023-03-24T01:12:27;6.10;;;3.33;;
45688;SDS011;31400;48.132;20.872;2023-03-24T01:14:54;6.43;;;3.72;;
45688;SDS011;31400;48.132;20.872;2023-03-24T01:17:20;6.38;;;3.80;;
45688;SDS011;31400;48.132;20.872;2023-03-24T01:19:49;6.32;;;3.55;;
45688;SDS011;31400;48.132;20.872;2023-03-24T01:22:15;6.72;;;4.22;;
45688;SDS011;31400;48.132;20.872;2023-03-24T01:27:08;8.57;;;4.22;;
45688;SDS011;31400;48.132;20.872;2023-03-24T01:29:34;7.57;;;4.07;;
45688;SDS011;31400;48.132;20.872;2023-03-24T01:32:01;5.90;;;3.40;;
45688;SDS011;31400;48.132;20.872;2023-03-24T01:34:27;6.00;;;3.72;;
45688;SDS011;31400;48.132;20.872;2023-03-24T01:36:53;9.57;;;4.35;;
45688;SDS011;31400;48.132;20.872;2023-03-24T01:39:19;6.55;;;3.80;;
45688;SDS011;31400;48.132;20.872;2023-03-24T01:41:45;5.80;;;3.53;;
45688;SDS011;31400;48.132;20.872;2023-03-24T01:46:53;7.32;;;4.03;;
45688;SDS011;31400;48.132;20.872;2023-03-24T01:49:20;8.98;;;4.40;;
45688;SDS011;31400;48.132;20.872;2023-03-24T01:51:47;9.82;;;5.15;;
45688;SDS011;31400;48.132;20.872;2023-03-24T01:54:19;6.97;;;4.28;;
45688;SDS011;31400;48.132;20.872;2023-03-24T01:56:50;7.78;;;4.47;;
45688;SDS011;31400;48.132;20.872;2023-03-24T01:59:18;6.07;;;4.15;;
45688;SDS011;31400;48.132;20.872;2023-03-24T02:01:46;11.90;;;5.25;;
45688;SDS011;31400;48.132;20.872;2023-03-24T02:04:12;8.80;;;4.90;;
45688;SDS011;31400;48.132;20.872;2023-03-24T02:09:05;11.77;;;4.20;;
45688;SDS011;31400;48.132;20.872;2023-03-24T02:11:32;8.43;;;4.22;;
45688;SDS011;31400;48.132;20.872;2023-03-24T02:13:58;6.68;;;4.43;;
45688;SDS011;31400;48.132;20.872;2023-03-24T02:16:37;8.05;;;4.75;;
45688;SDS011;31400;48.132;20.872;2023-03-24T02:34:39;9.57;;;4.95;;
45688;SDS011;31400;48.132;20.872;2023-03-24T02:37:25;10.50;;;4.35;;
45688;SDS011;31400;48.132;20.872;2023-03-24T02:48:01;12.75;;;5.55;;
45688;SDS011;31400;48.132;20.872;2023-03-24T02:57:53;7.35;;;3.97;;
45688;SDS011;31400;48.132;20.872;2023-03-24T03:00:28;8.73;;;5.10;;
45688;SDS011;31400;48.132;20.872;2023-03-24T03:03:08;10.43;;;5.00;;
45688;SDS011;31400;48.132;20.872;2023-03-24T03:05:43;16.17;;;4.78;;
45688;SDS011;31400;48.132;20.872;2023-03-24T03:08:11;8.65;;;3.72;;
45688;SDS011;31400;48.132;20.872;2023-03-24T03:10:41;8.00;;;4.03;;
45688;SDS011;31400;48.132;20.872;2023-03-24T03:13:10;8.90;;;5.05;;
45688;SDS011;31400;48.132;20.872;2023-03-24T03:15:38;8.25;;;4.60;;
45688;SDS011;31400;48.132;20.872;2023-03-24T03:18:10;8.65;;;4.40;;
45688;SDS011;31400;48.132;20.872;2023-03-24T03:20:44;11.82;;;5.28;;
45688;SDS011;31400;48.132;20.872;2023-03-24T03:23:14;6.80;;;4.35;;
45688;SDS011;31400;48.132;20.872;2023-03-24T03:25:48;12.38;;;6.18;;
45688;SDS011;31400;48.132;20.872;2023-03-24T03:28:17;9.00;;;4.78;;
45688;SDS011;31400;48.132;20.872;2023-03-24T03:30:47;11.50;;;5.32;;
45688;SDS011;31400;48.132;20.872;2023-03-24T03:33:16;11.50;;;5.82;;
45688;SDS011;31400;48.132;20.872;2023-03-24T03:35:51;10.82;;;5.65;;
45688;SDS011;31400;48.132;20.872;2023-03-24T03:40:59;8.23;;;4.07;;
45688;SDS011;31400;48.132;20.872;2023-03-24T03:43:27;9.18;;;4.78;;
45688;SDS011;31400;48.132;20.872;2023-03-24T03:45:55;8.07;;;5.00;;
45688;SDS011;31400;48.132;20.872;2023-03-24T03:48:22;10.65;;;5.18;;
45688;SDS011;31400;48.132;20.872;2023-03-24T03:50:50;12.75;;;4.88;;
45688;SDS011;31400;48.132;20.872;2023-03-24T03:53:18;10.68;;;5.05;;
45688;SDS011;31400;48.132;20.872;2023-03-24T03:55:45;11.68;;;4.47;;
45688;SDS011;31400;48.132;20.872;2023-03-24T03:58:11;12.60;;;4.88;;
45688;SDS011;31400;48.132;20.872;2023-03-24T04:00:37;9.57;;;4.05;;
45688;SDS011;31400;48.132;20.872;2023-03-24T04:05:49;6.57;;;4.00;;
45688;SDS011;31400;48.132;20.872;2023-03-24T04:13:48;9.00;;;5.15;;
45688;SDS011;31400;48.132;20.872;2023-03-24T04:21:54;8.02;;;4.00;;
45688;SDS011;31400;48.132;20.872;2023-03-24T04:29:19;8.05;;;4.93;;
45688;SDS011;31400;48.132;20.872;2023-03-24T04:31:53;10.05;;;5.43;;
45688;SDS011;31400;48.132;20.872;2023-03-24T04:34:26;13.18;;;5.70;;
45688;SDS011;31400;48.132;20.872;2023-03-24T04:37:10;10.88;;;5.40;;
45688;SDS011;31400;48.132;20.872;2023-03-24T04:39:39;10.00;;;5.57;;
45688;SDS011;31400;48.132;20.872;2023-03-24T04:42:11;11.25;;;4.82;;
45688;SDS011;31400;48.132;20.872;2023-03-24T04:44:38;9.95;;;6.57;;
45688;SDS011;31400;48.132;20.872;2023-03-24T04:47:05;7.63;;;4.65;;
45688;SDS011;31400;48.132;20.872;2023-03-24T04:49:36;8.10;;;5.20;;
45688;SDS011;31400;48.132;20.872;2023-03-24T04:52:02;9.73;;;5.28;;
45688;SDS011;31400;48.132;20.872;2023-03-24T04:54:28;12.15;;;6.55;;
45688;SDS011;31400;48.132;20.872;2023-03-24T04:56:58;11.25;;;4.85;;
45688;SDS011;31400;48.132;20.872;2023-03-24T04:59:26;11.88;;;5.85;;
45688;SDS011;31400;48.132;20.872;2023-03-24T05:04:18;13.50;;;5.68;;
45688;SDS011;31400;48.132;20.872;2023-03-24T05:06:45;7.88;;;4.43;;
45688;SDS011;31400;48.132;20.872;2023-03-24T05:09:15;12.23;;;5.78;;
45688;SDS011;31400;48.132;20.872;2023-03-24T05:11:42;11.23;;;5.82;;
45688;SDS011;31400;48.132;20.872;2023-03-24T05:16:34;7.78;;;5.45;;
45688;SDS011;31400;48.132;20.872;2023-03-24T05:19:00;15.80;;;6.18;;
45688;SDS011;31400;48.132;20.872;2023-03-24T05:21:26;9.98;;;4.82;;
45688;SDS011;31400;48.132;20.872;2023-03-24T05:23:52;11.52;;;5.35;;
45688;SDS011;31400;48.132;20.872;2023-03-24T05:26:18;10.30;;;5.68;;
45688;SDS011;31400;48.132;20.872;2023-03-24T05:28:44;13.45;;;6.28;;
45688;SDS011;31400;48.132;20.872;2023-03-24T05:31:10;9.77;;;5.70;;
45688;SDS011;31400;48.132;20.872;2023-03-24T05:33:36;7.18;;;5.05;;
45688;SDS011;31400;48.132;20.872;2023-03-24T05:36:03;10.02;;;5.07;;
45688;SDS011;31400;48.132;20.872;2023-03-24T05:40:57;9.55;;;4.57;;
45688;SDS011;31400;48.132;20.872;2023-03-24T05:43:24;10.60;;;5.90;;
45688;SDS011;31400;48.132;20.872;2023-03-24T05:45:51;7.70;;;4.00;;
45688;SDS011;31400;48.132;20.872;2023-03-24T05:48:17;8.50;;;4.72;;
45688;SDS011;31400;48.132;20.872;2023-03-24T05:50:43;8.02;;;4.90;;
45688;SDS011;31400;48.132;20.872;2023-03-24T05:53:12;10.82;;;5.75;;
45688;SDS011;31400;48.132;20.872;2023-03-24T05:55:38;11.15;;;5.50;;
45688;SDS011;31400;48.132;20.872;2023-03-24T05:58:05;9.95;;;5.22;;
45688;SDS011;31400;48.132;20.872;2023-03-24T06:00:31;9.48;;;5.63;;
45688;SDS011;31400;48.132;20.872;2023-03-24T06:05:24;8.18;;;5.47;;
45688;SDS011;31400;48.132;20.872;2023-03-24T06:07:50;14.57;;;5.32;;
45688;SDS011;31400;48.132;20.872;2023-03-24T06:10:16;9.45;;;5.57;;
45688;SDS011;31400;48.132;20.872;2023-03-24T06:12:43;10.43;;;5.28;;
45688;SDS011;31400;48.132;20.872;2023-03-24T06:15:09;8.93;;;5.50;;
45688;SDS011;31400;48.132;20.872;2023-03-24T06:17:35;9.15;;;5.47;;
45688;SDS011;31400;48.132;20.872;2023-03-24T06:20:04;9.20;;;5.50;;
45688;SDS011;31400;48.132;20.872;2023-03-24T06:22:37;9.93;;;5.57;;
45688;SDS011;31400;48.132;20.872;2023-03-24T06:25:04;12.02;;;6.05;;
45688;SDS011;31400;48.132;20.872;2023-03-24T06:27:30;12.38;;;6.10;;
45688;SDS011;31400;48.132;20.872;2023-03-24T06:29:57;9.00;;;5.43;;
45688;SDS011;31400;48.132;20.872;2023-03-24T06:32:23;10.82;;;5.32;;
45688;SDS011;31400;48.132;20.872;2023-03-24T06:34:49;10.85;;;6.00;;
45688;SDS011;31400;48.132;20.872;2023-03-24T06:37:15;11.95;;;5.78;;
45688;SDS011;31400;48.132;20.872;2023-03-24T06:39:42;10.65;;;7.00;;
45688;SDS011;31400;48.132;20.872;2023-03-24T06:42:08;13.18;;;7.40;;
45688;SDS011;31400;48.132;20.872;2023-03-24T06:44:34;16.15;;;7.47;;
45688;SDS011;31400;48.132;20.872;2023-03-24T06:47:00;11.88;;;7.32;;
45688;SDS011;31400;48.132;20.872;2023-03-24T06:49:26;13.25;;;6.68;;
45688;SDS011;31400;48.132;20.872;2023-03-24T06:51:52;15.70;;;7.80;;
45688;SDS011;31400;48.132;20.872;2023-03-24T06:56:44;9.20;;;5.63;;
45688;SDS011;31400;48.132;20.872;2023-03-24T06:59:10;10.00;;;6.00;;
45688;SDS011;31400;48.132;20.872;2023-03-24T07:01:36;11.68;;;6.88;;
45688;SDS011;31400;48.132;20.872;2023-03-24T07:06:28;12.40;;;6.30;;
45688;SDS011;31400;48.132;20.872;2023-03-24T07:08:55;10.98;;;6.53;;
45688;SDS011;31400;48.132;20.872;2023-03-24T07:11:21;10.52;;;6.90;;
45688;SDS011;31400;48.132;20.872;2023-03-24T07:16:13;9.95;;;7.05;;
45688;SDS011;31400;48.132;20.872;2023-03-24T07:21:05;9.38;;;6.03;;
45688;SDS011;31400;48.132;20.872;2023-03-24T07:25:57;12.15;;;6.80;;
45688;SDS011;31400;48.132;20.872;2023-03-24T07:30:49;8.65;;;6.47;;
45688;SDS011;31400;48.132;20.872;2023-03-24T07:33:16;10.23;;;6.20;;
45688;SDS011;31400;48.132;20.872;2023-03-24T07:35:44;11.05;;;5.97;;
45688;SDS011;31400;48.132;20.872;2023-03-24T07:38:10;19.80;;;7.03;;
45688;SDS011;31400;48.132;20.872;2023-03-24T07:40:36;12.98;;;7.05;;
45688;SDS011;31400;48.132;20.872;2023-03-24T07:43:03;10.90;;;6.68;;
45688;SDS011;31400;48.132;20.872;2023-03-24T07:45:30;18.60;;;6.90;;
45688;SDS011;31400;48.132;20.872;2023-03-24T07:47:56;14.18;;;7.82;;
45688;SDS011;31400;48.132;20.872;2023-03-24T07:50:26;14.00;;;8.07;;
45688;SDS011;31400;48.132;20.872;2023-03-24T07:52:52;13.38;;;6.78;;
45688;SDS011;31400;48.132;20.872;2023-03-24T07:57:45;10.93;;;7.35;;
45688;SDS011;31400;48.132;20.872;2023-03-24T08:00:12;12.05;;;6.75;;
45688;SDS011;31400;48.132;20.872;2023-03-24T08:02:52;12.27;;;7.07;;
45688;SDS011;31400;48.132;20.872;2023-03-24T08:05:18;11.73;;;7.07;;
45688;SDS011;31400;48.132;20.872;2023-03-24T08:07:46;9.85;;;6.18;;
45688;SDS011;31400;48.132;20.872;2023-03-24T08:10:20;15.18;;;7.10;;
45688;SDS011;31400;48.132;20.872;2023-03-24T08:12:47;10.00;;;5.35;;
45688;SDS011;31400;48.132;20.872;2023-03-24T08:15:13;14.15;;;6.88;;
45688;SDS011;31400;48.132;20.872;2023-03-24T08:17:39;10.40;;;6.80;;
45688;SDS011;31400;48.132;20.872;2023-03-24T08:20:08;9.95;;;6.40;;
45688;SDS011;31400;48.132;20.872;2023-03-24T08:22:40;10.75;;;6.10;;
45688;SDS011;31400;48.132;20.872;2023-03-24T08:25:07;10.98;;;6.22;;
45688;SDS011;31400;48.132;20.872;2023-03-24T08:27:34;16.10;;;7.70;;
45688;SDS011;31400;48.132;20.872;2023-03-24T08:30:01;9.65;;;5.55;;
45688;SDS011;31400;48.132;20.872;2023-03-24T08:32:27;9.95;;;6.25;;
45688;SDS011;31400;48.132;20.872;2023-03-24T08:34:53;18.13;;;6.60;;
45688;SDS011;31400;48.132;20.872;2023-03-24T08:37:23;14.52;;;6.18;;
45688;SDS011;31400;48.132;20.872;2023-03-24T08:39:49;10.45;;;5.78;;
45688;SDS011;31400;48.132;20.872;2023-03-24T08:42:15;9.05;;;6.75;;
45688;SDS011;31400;48.132;20.872;2023-03-24T08:44:41;9.60;;;6.60;;
45688;SDS011;31400;48.132;20.872;2023-03-24T08:47:08;8.00;;;5.78;;
45688;SDS011;31400;48.132;20.872;2023-03-24T08:52:00;10.23;;;5.90;;
45688;SDS011;31400;48.132;20.872;2023-03-24T08:54:26;9.38;;;5.60;;
45688;SDS011;31400;48.132;20.872;2023-03-24T08:56:52;9.57;;;5.65;;
45688;SDS011;31400;48.132;20.872;2023-03-24T08:59:19;12.10;;;6.88;;
45688;SDS011;31400;48.132;20.872;2023-03-24T09:01:45;12.45;;;6.22;;
45688;SDS011;31400;48.132;20.872;2023-03-24T09:04:11;14.00;;;7.82;;
45688;SDS011;31400;48.132;20.872;2023-03-24T09:06:37;10.88;;;6.43;;
45688;SDS011;31400;48.132;20.872;2023-03-24T09:09:03;12.48;;;6.43;;
45688;SDS011;31400;48.132;20.872;2023-03-24T09:11:32;12.93;;;7.28;;
45688;SDS011;31400;48.132;20.872;2023-03-24T09:13:58;13.68;;;6.90;;
45688;SDS011;31400;48.132;20.872;2023-03-24T09:16:24;11.27;;;6.68;;
45688;SDS011;31400;48.132;20.872;2023-03-24T09:18:51;9.30;;;6.53;;
45688;SDS011;31400;48.132;20.872;2023-03-24T09:23:44;11.85;;;7.03;;
45688;SDS011;31400;48.132;20.872;2023-03-24T09:26:10;13.43;;;7.63;;
45688;SDS011;31400;48.132;20.872;2023-03-24T09:28:36;9.75;;;6.68;;
45688;SDS011;31400;48.132;20.872;2023-03-24T09:33:28;10.75;;;6.15;;
45688;SDS011;31400;48.132;20.872;2023-03-24T09:38:20;9.10;;;5.55;;
45688;SDS011;31400;48.132;20.872;2023-03-24T09:45:54;8.43;;;5.60;;
45688;SDS011;31400;48.132;20.872;2023-03-24T09:48:33;9.30;;;5.88;;
45688;SDS011;31400;48.132;20.872;2023-03-24T09:51:01;8.75;;;5.13;;
45688;SDS011;31400;48.132;20.872;2023-03-24T09:56:03;8.05;;;5.57;;
45688;SDS011;31400;48.132;20.872;2023-03-24T09:58:33;9.40;;;5.85;;
45688;SDS011;31400;48.132;20.872;2023-03-24T10:01:00;11.30;;;6.03;;
45688;SDS011;31400;48.132;20.872;2023-03-24T10:08:29;8.30;;;4.70;;
45688;SDS011;31400;48.132;20.872;2023-03-24T10:11:05;7.63;;;4.50;;
45688;SDS011;31400;48.132;20.872;2023-03-24T10:21:26;6.90;;;4.28;;
45688;SDS011;31400;48.132;20.872;2023-03-24T10:29:29;5.45;;;3.72;;
45688;SDS011;31400;48.132;20.872;2023-03-24T10:32:02;5.53;;;3.75;;
45688;SDS011;31400;48.132;20.872;2023-03-24T10:34:30;8.60;;;4.40;;
45688;SDS011;31400;48.132;20.872;2023-03-24T10:36:58;7.95;;;3.58;;
45688;SDS011;31400;48.132;20.872;2023-03-24T10:39:25;5.32;;;3.50;;
45688;SDS011;31400;48.132;20.872;2023-03-24T10:44:17;5.13;;;3.58;;
45688;SDS011;31400;48.132;20.872;2023-03-24T10:46:48;6.40;;;4.22;;
45688;SDS011;31400;48.132;20.872;2023-03-24T10:49:16;7.47;;;3.50;;
45688;SDS011;31400;48.132;20.872;2023-03-24T10:51:48;5.57;;;3.47;;
45688;SDS011;31400;48.132;20.872;2023-03-24T10:54:19;8.18;;;3.83;;
45688;SDS011;31400;48.132;20.872;2023-03-24T10:56:50;5.55;;;3.47;;
45688;SDS011;31400;48.132;20.872;2023-03-24T11:04:27;5.43;;;3.42;;
45688;SDS011;31400;48.132;20.872;2023-03-24T11:09:25;5.82;;;3.28;;
45688;SDS011;31400;48.132;20.872;2023-03-24T11:11:51;6.28;;;3.33;;
45688;SDS011;31400;48.132;20.872;2023-03-24T11:14:27;5.40;;;3.22;;
45688;SDS011;31400;48.132;20.872;2023-03-24T11:17:09;7.90;;;3.30;;
45688;SDS011;31400;48.132;20.872;2023-03-24T11:19:36;6.60;;;2.92;;
45688;SDS011;31400;48.132;20.872;2023-03-24T11:22:04;4.45;;;2.88;;
45688;SDS011;31400;48.132;20.872;2023-03-24T11:24:34;4.95;;;3.28;;
45688;SDS011;31400;48.132;20.872;2023-03-24T11:27:01;4.18;;;2.38;;
45688;SDS011;31400;48.132;20.872;2023-03-24T11:29:32;5.00;;;2.85;;
45688;SDS011;31400;48.132;20.872;2023-03-24T11:32:02;6.45;;;2.88;;
45688;SDS011;31400;48.132;20.872;2023-03-24T11:34:33;6.03;;;2.65;;
45688;SDS011;31400;48.132;20.872;2023-03-24T11:39:44;5.78;;;3.25;;
45688;SDS011;31400;48.132;20.872;2023-03-24T11:42:29;4.72;;;2.35;;
45688;SDS011;31400;48.132;20.872;2023-03-24T11:47:31;3.45;;;2.05;;
45688;SDS011;31400;48.132;20.872;2023-03-24T11:52:28;5.80;;;2.53;;
45688;SDS011;31400;48.132;20.872;2023-03-24T11:54:56;4.18;;;2.58;;
45688;SDS011;31400;48.132;20.872;2023-03-24T11:59:55;4.90;;;2.35;;
45688;SDS011;31400;48.132;20.872;2023-03-24T12:04:56;6.40;;;2.65;;
45688;SDS011;31400;48.132;20.872;2023-03-24T12:12:54;2.72;;;1.80;;
45688;SDS011;31400;48.132;20.872;2023-03-24T12:21:09;4.22;;;2.38;;
45688;SDS011;31400;48.132;20.872;2023-03-24T12:33:52;4.10;;;1.88;;
45688;SDS011;31400;48.132;20.872;2023-03-24T12:41:53;3.75;;;2.25;;
45688;SDS011;31400;48.132;20.872;2023-03-24T12:44:26;9.05;;;2.20;;
45688;SDS011;31400;48.132;20.872;2023-03-24T12:52:22;3.63;;;1.40;;
45688;SDS011;31400;48.132;20.872;2023-03-24T12:57:18;1.85;;;1.25;;
45688;SDS011;31400;48.132;20.872;2023-03-24T12:59:58;2.63;;;1.40;;
45688;SDS011;31400;48.132;20.872;2023-03-24T13:04:56;3.50;;;1.50;;
45688;SDS011;31400;48.132;20.872;2023-03-24T13:07:28;2.38;;;1.60;;
45688;SDS011;31400;48.132;20.872;2023-03-24T13:17:25;3.17;;;1.45;;
45688;SDS011;31400;48.132;20.872;2023-03-24T13:19:52;4.75;;;2.03;;
45688;SDS011;31400;48.132;20.872;2023-03-24T13:22:19;2.00;;;1.25;;
45688;SDS011;31400;48.132;20.872;2023-03-24T13:24:47;5.13;;;1.83;;
45688;SDS011;31400;48.132;20.872;2023-03-24T13:27:19;3.78;;;1.98;;
45688;SDS011;31400;48.132;20.872;2023-03-24T13:30:12;6.93;;;2.17;;
45688;SDS011;31400;48.132;20.872;2023-03-24T13:32:35;3.38;;;2.13;;
45688;SDS011;31400;48.132;20.872;2023-03-24T13:35:05;3.70;;;1.80;;
45688;SDS011;31400;48.132;20.872;2023-03-24T13:42:31;3.65;;;1.42;;
45688;SDS011;31400;48.132;20.872;2023-03-24T13:44:59;2.53;;;1.17;;
45688;SDS011;31400;48.132;20.872;2023-03-24T13:50:10;3.10;;;1.58;;
45688;SDS011;31400;48.132;20.872;2023-03-24T13:52:38;3.50;;;1.77;;
45688;SDS011;31400;48.132;20.872;2023-03-24T13:55:12;3.67;;;1.83;;
45688;SDS011;31400;48.132;20.872;2023-03-24T13:57:40;3.28;;;1.77;;
45688;SDS011;31400;48.132;20.872;2023-03-24T14:02:42;3.42;;;1.58;;
45688;SDS011;31400;48.132;20.872;2023-03-24T14:07:50;4.28;;;1.92;;
45688;SDS011;31400;48.132;20.872;2023-03-24T14:13:00;3.15;;;1.42;;
45688;SDS011;31400;48.132;20.872;2023-03-24T14:15:34;6.05;;;1.90;;
45688;SDS011;31400;48.132;20.872;2023-03-24T14:21:07;2.50;;;1.50;;
45688;SDS011;31400;48.132;20.872;2023-03-24T14:25:59;5.07;;;1.63;;
45688;SDS011;31400;48.132;20.872;2023-03-24T14:28:46;2.00;;;1.08;;
45688;SDS011;31400;48.132;20.872;2023-03-24T14:36:24;4.03;;;1.85;;
45688;SDS011;31400;48.132;20.872;2023-03-24T14:38:54;2.92;;;1.75;;
45688;SDS011;31400;48.132;20.872;2023-03-24T14:41:29;2.70;;;1.50;;
45688;SDS011;31400;48.132;20.872;2023-03-24T14:43:58;4.53;;;1.80;;
45688;SDS011;31400;48.132;20.872;2023-03-24T14:46:32;4.00;;;1.63;;
45688;SDS011;31400;48.132;20.872;2023-03-24T14:51:48;4.68;;;1.95;;
45688;SDS011;31400;48.132;20.872;2023-03-24T14:59:21;3.13;;;1.50;;
45688;SDS011;31400;48.132;20.872;2023-03-24T15:01:50;2.60;;;1.80;;
45688;SDS011;31400;48.132;20.872;2023-03-24T15:04:20;3.08;;;1.35;;
45688;SDS011;31400;48.132;20.872;2023-03-24T15:09:13;2.53;;;1.40;;
45688;SDS011;31400;48.132;20.872;2023-03-24T15:11:40;2.95;;;1.45;;
45688;SDS011;31400;48.132;20.872;2023-03-24T15:14:15;1.48;;;0.98;;
45688;SDS011;31400;48.132;20.872;2023-03-24T15:19:15;2.55;;;1.45;;
45688;SDS011;31400;48.132;20.872;2023-03-24T15:22:03;2.97;;;1.58;;
45688;SDS011;31400;48.132;20.872;2023-03-24T15:24:31;2.45;;;1.30;;
45688;SDS011;31400;48.132;20.872;2023-03-24T15:29:33;3.75;;;1.58;;
45688;SDS011;31400;48.132;20.872;2023-03-24T15:31:59;3.58;;;1.73;;
45688;SDS011;31400;48.132;20.872;2023-03-24T15:36:52;5.15;;;2.20;;
45688;SDS011;31400;48.132;20.872;2023-03-24T15:39:19;4.85;;;1.85;;
45688;SDS011;31400;48.132;20.872;2023-03-24T15:41:46;6.05;;;1.67;;
45688;SDS011;31400;48.132;20.872;2023-03-24T15:44:27;3.72;;;2.05;;
45688;SDS011;31400;48.132;20.872;2023-03-24T15:46:58;3.05;;;1.48;;
45688;SDS011;31400;48.132;20.872;2023-03-24T15:49:26;3.00;;;1.80;;
45688;SDS011;31400;48.132;20.872;2023-03-24T15:51:57;3.38;;;1.73;;
45688;SDS011;31400;48.132;20.872;2023-03-24T15:54:24;2.08;;;1.48;;
45688;SDS011;31400;48.132;20.872;2023-03-24T15:57:01;5.25;;;1.63;;
45688;SDS011;31400;48.132;20.872;2023-03-24T15:59:34;4.05;;;1.73;;
45688;SDS011;31400;48.132;20.872;2023-03-24T16:02:02;4.80;;;2.08;;
45688;SDS011;31400;48.132;20.872;2023-03-24T16:04:29;7.20;;;1.88;;
45688;SDS011;31400;48.132;20.872;2023-03-24T16:09:22;4.35;;;2.08;;
45688;SDS011;31400;48.132;20.872;2023-03-24T16:11:53;3.45;;;2.17;;
45688;SDS011;31400;48.132;20.872;2023-03-24T16:14:21;4.13;;;2.00;;
45688;SDS011;31400;48.132;20.872;2023-03-24T16:16:51;4.22;;;1.80;;
45688;SDS011;31400;48.132;20.872;2023-03-24T16:19:17;3.90;;;2.00;;
45688;SDS011;31400;48.132;20.872;2023-03-24T16:24:09;6.75;;;2.88;;
45688;SDS011;31400;48.132;20.872;2023-03-24T16:26:35;4.85;;;2.80;;
45688;SDS011;31400;48.132;20.872;2023-03-24T16:31:29;4.28;;;2.50;;
45688;SDS011;31400;48.132;20.872;2023-03-24T16:33:55;8.68;;;2.55;;
45688;SDS011;31400;48.132;20.872;2023-03-24T16:36:22;4.85;;;2.20;;
45688;SDS011;31400;48.132;20.872;2023-03-24T16:38:50;7.05;;;3.65;;
45688;SDS011;31400;48.132;20.872;2023-03-24T16:41:17;5.95;;;2.60;;
45688;SDS011;31400;48.132;20.872;2023-03-24T16:43:43;4.78;;;2.65;;
45688;SDS011;31400;48.132;20.872;2023-03-24T16:46:17;4.05;;;2.08;;
45688;SDS011;31400;48.132;20.872;2023-03-24T16:48:44;7.65;;;2.92;;
45688;SDS011;31400;48.132;20.872;2023-03-24T16:51:14;8.05;;;2.35;;
45688;SDS011;31400;48.132;20.872;2023-03-24T16:53:41;3.97;;;2.47;;
45688;SDS011;31400;48.132;20.872;2023-03-24T16:56:08;2.80;;;1.83;;
45688;SDS011;31400;48.132;20.872;2023-03-24T16:58:34;17.45;;;2.70;;
45688;SDS011;31400;48.132;20.872;2023-03-24T17:01:24;5.35;;;1.90;;
45688;SDS011;31400;48.132;20.872;2023-03-24T17:03:52;5.05;;;2.58;;
45688;SDS011;31400;48.132;20.872;2023-03-24T17:06:19;6.65;;;2.50;;
45688;SDS011;31400;48.132;20.872;2023-03-24T17:08:45;3.97;;;2.13;;
45688;SDS011;31400;48.132;20.872;2023-03-24T17:11:11;5.68;;;2.88;;
45688;SDS011;31400;48.132;20.872;2023-03-24T17:16:04;4.60;;;2.63;;
45688;SDS011;31400;48.132;20.872;2023-03-24T17:18:30;3.70;;;2.03;;
45688;SDS011;31400;48.132;20.872;2023-03-24T17:20:57;7.18;;;2.30;;
45688;SDS011;31400;48.132;20.872;2023-03-24T17:25:49;14.55;;;8.15;;
45688;SDS011;31400;48.132;20.872;2023-03-24T17:28:15;8.93;;;3.65;;
45688;SDS011;31400;48.132;20.872;2023-03-24T17:30:42;25.23;;;17.10;;
45688;SDS011;31400;48.132;20.872;2023-03-24T17:33:12;20.20;;;8.93;;
45688;SDS011;31400;48.132;20.872;2023-03-24T17:35:38;47.47;;;20.85;;
45688;SDS011;31400;48.132;20.872;2023-03-24T17:38:05;36.30;;;16.83;;
45688;SDS011;31400;48.132;20.872;2023-03-24T17:42:57;9.27;;;4.88;;
45688;SDS011;31400;48.132;20.872;2023-03-24T17:45:23;6.75;;;3.28;;
45688;SDS011;31400;48.132;20.872;2023-03-24T17:50:15;11.55;;;4.38;;
45688;SDS011;31400;48.132;20.872;2023-03-24T17:52:43;8.40;;;4.20;;
45688;SDS011;31400;48.132;20.872;2023-03-24T17:55:10;11.07;;;4.82;;
45688;SDS011;31400;48.132;20.872;2023-03-24T17:57:36;11.10;;;5.80;;
45688;SDS011;31400;48.132;20.872;2023-03-24T18:00:03;24.38;;;11.68;;
45688;SDS011;31400;48.132;20.872;2023-03-24T18:02:35;16.15;;;8.32;;
45688;SDS011;31400;48.132;20.872;2023-03-24T18:07:27;17.30;;;7.80;;
45688;SDS011;31400;48.132;20.872;2023-03-24T18:12:19;21.08;;;10.05;;
45688;SDS011;31400;48.132;20.872;2023-03-24T18:14:46;22.00;;;12.07;;
45688;SDS011;31400;48.132;20.872;2023-03-24T18:17:12;20.70;;;11.43;;
45688;SDS011;31400;48.132;20.872;2023-03-24T18:19:38;26.50;;;12.48;;
45688;SDS011;31400;48.132;20.872;2023-03-24T18:22:04;21.88;;;13.43;;
45688;SDS011;31400;48.132;20.872;2023-03-24T18:24:31;26.98;;;16.08;;
45688;SDS011;31400;48.132;20.872;2023-03-24T18:29:23;28.25;;;14.43;;
45688;SDS011;31400;48.132;20.872;2023-03-24T18:31:49;30.67;;;18.27;;
45688;SDS011;31400;48.132;20.872;2023-03-24T18:36:42;23.35;;;14.88;;
45688;SDS011;31400;48.132;20.872;2023-03-24T18:39:10;31.05;;;16.77;;
45688;SDS011;31400;48.132;20.872;2023-03-24T18:41:37;45.03;;;21.48;;
45688;SDS011;31400;48.132;20.872;2023-03-24T18:44:07;46.17;;;24.83;;
45688;SDS011;31400;48.132;20.872;2023-03-24T18:46:34;65.18;;;27.30;;
45688;SDS011;31400;48.132;20.872;2023-03-24T18:49:00;26.63;;;16.67;;
45688;SDS011;31400;48.132;20.872;2023-03-24T18:51:30;27.73;;;15.20;;
45688;SDS011;31400;48.132;20.872;2023-03-24T18:53:57;32.15;;;17.15;;
45688;SDS011;31400;48.132;20.872;2023-03-24T18:58:49;24.13;;;12.45;;
45688;SDS011;31400;48.132;20.872;2023-03-24T19:01:16;25.58;;;10.57;;